createdAt,value
2022-09-15T00:00:53.464Z,12.58
2022-09-15T00:03:21.347Z,12.66
2022-09-15T00:05:48.271Z,12.72
2022-09-15T00:08:15.094Z,12.77
2022-09-15T00:10:53.307Z,12.88
2022-09-15T00:13:21.186Z,12.97
2022-09-15T00:15:48.237Z,13.00
2022-09-15T00:18:14.787Z,13.06
2022-09-15T00:20:43.132Z,13.08
2022-09-15T00:23:11.436Z,13.06
2022-09-15T00:25:44.106Z,13.04
2022-09-15T00:28:10.389Z,12.92
2022-09-15T00:30:43.960Z,12.87
2022-09-15T00:33:11.137Z,12.72
2022-09-15T00:35:41.969Z,12.57
2022-09-15T00:38:09.714Z,12.46
2022-09-15T00:40:52.053Z,12.41
2022-09-15T00:43:20.939Z,12.50
2022-09-15T00:45:48.430Z,12.51
2022-09-15T00:48:18.999Z,12.42
2022-09-15T00:50:56.949Z,12.44
2022-09-15T00:53:26.096Z,12.41
2022-09-15T00:55:52.837Z,12.43
2022-09-15T00:58:47.357Z,12.42
2022-09-15T01:01:15.955Z,12.47
2022-09-15T01:03:42.867Z,12.44
2022-09-15T01:06:25.415Z,12.37
2022-09-15T01:08:57.503Z,12.45
2022-09-15T01:11:24.352Z,12.46
2022-09-15T01:13:50.738Z,12.49
2022-09-15T01:19:13.106Z,12.45
2022-09-15T01:21:58.748Z,12.45
2022-09-15T01:24:44.047Z,12.44
2022-09-15T01:27:41.047Z,12.45
2022-09-15T01:30:09.370Z,12.45
2022-09-15T01:32:54.226Z,12.45
2022-09-15T01:35:35.576Z,12.48
2022-09-15T01:38:11.115Z,12.51
2022-09-15T01:40:50.176Z,12.46
2022-09-15T01:43:20.270Z,12.48
2022-09-15T01:45:49.579Z,12.52
2022-09-15T01:48:22.701Z,12.50
2022-09-15T01:50:53.016Z,12.49
2022-09-15T01:53:22.138Z,12.47
2022-09-15T01:56:10.217Z,12.44
2022-09-15T01:58:39.282Z,12.48
2022-09-15T02:01:11.352Z,12.48
2022-09-15T02:03:55.560Z,12.52
2022-09-15T02:06:36.840Z,12.48
2022-09-15T02:09:13.368Z,12.53
2022-09-15T02:11:52.810Z,12.50
2022-09-15T02:14:39.177Z,12.54
2022-09-15T02:17:05.824Z,12.53
2022-09-15T02:19:44.890Z,12.56
2022-09-15T02:22:27.662Z,12.59
2022-09-15T02:24:59.667Z,12.59
2022-09-15T02:27:31.534Z,12.61
2022-09-15T02:30:06.732Z,12.61
2022-09-15T02:32:36.824Z,12.59
2022-09-15T02:35:06.531Z,12.67
2022-09-15T02:37:35.230Z,12.63
2022-09-15T02:40:02.474Z,12.61
2022-09-15T02:42:31.442Z,12.61
2022-09-15T02:44:59.359Z,12.61
2022-09-15T02:47:28.101Z,12.54
2022-09-15T02:49:55.431Z,12.53
2022-09-15T02:52:21.704Z,12.50
2022-09-15T02:54:48.102Z,12.51
2022-09-15T02:57:14.471Z,12.49
2022-09-15T02:59:59.076Z,12.47
2022-09-15T03:02:25.442Z,12.49
2022-09-15T03:04:52.336Z,12.50
2022-09-15T03:07:19.007Z,12.53
2022-09-15T03:09:46.263Z,12.52
2022-09-15T03:12:13.092Z,12.52
2022-09-15T03:14:48.801Z,12.53
2022-09-15T03:17:15.103Z,12.54
2022-09-15T03:19:41.388Z,12.53
2022-09-15T03:22:09.268Z,12.54
2022-09-15T03:24:36.736Z,12.53
2022-09-15T03:27:03.868Z,12.54
2022-09-15T03:29:30.823Z,12.57
2022-09-15T03:31:57.325Z,12.55
2022-09-15T03:34:23.647Z,12.54
2022-09-15T03:36:49.954Z,12.54
2022-09-15T03:39:16.228Z,12.61
2022-09-15T03:41:42.524Z,12.55
2022-09-15T03:44:08.947Z,12.58
2022-09-15T03:46:35.529Z,12.50
2022-09-15T03:49:01.819Z,12.48
2022-09-15T03:51:28.116Z,12.54
2022-09-15T03:53:55.432Z,12.50
2022-09-15T03:56:27.594Z,12.49
2022-09-15T03:58:54.064Z,12.48
2022-09-15T04:01:20.897Z,12.41
2022-09-15T04:03:51.087Z,12.38
2022-09-15T04:06:19.625Z,12.38
2022-09-15T04:08:45.966Z,12.31
2022-09-15T04:11:13.764Z,12.28
2022-09-15T04:13:41.927Z,12.22
2022-09-15T04:16:11.379Z,12.25
2022-09-15T04:18:38.305Z,12.18
2022-09-15T04:21:12.515Z,12.20
2022-09-15T04:23:40.392Z,12.15
2022-09-15T04:26:11.675Z,12.15
2022-09-15T04:28:38.269Z,12.16
2022-09-15T04:31:13.339Z,12.21
2022-09-15T04:33:41.565Z,12.23
2022-09-15T04:36:11.563Z,12.25
2022-09-15T04:38:38.645Z,12.22
2022-09-15T04:41:05.641Z,12.30
2022-09-15T04:43:32.685Z,12.23
2022-09-15T04:45:59.228Z,12.22
2022-09-15T04:48:26.296Z,12.27
2022-09-15T04:50:53.109Z,12.29
2022-09-15T04:53:19.702Z,12.29
2022-09-15T04:55:46.013Z,12.37
2022-09-15T04:58:12.665Z,12.37
2022-09-15T05:00:43.287Z,12.32
2022-09-15T05:03:11.240Z,12.35
2022-09-15T05:05:38.009Z,12.32
2022-09-15T05:08:04.391Z,12.27
2022-09-15T05:10:31.206Z,12.38
2022-09-15T05:12:57.496Z,12.32
2022-09-15T05:15:24.100Z,12.32
2022-09-15T05:17:50.466Z,12.31
2022-09-15T05:20:17.517Z,12.30
2022-09-15T05:22:44.511Z,12.36
2022-09-15T05:25:11.258Z,12.36
2022-09-15T05:27:39.162Z,12.30
2022-09-15T05:30:34.929Z,12.32
2022-09-15T05:32:53.715Z,12.30
2022-09-15T05:35:20.150Z,12.34
2022-09-15T05:37:46.457Z,12.38
2022-09-15T05:40:12.871Z,12.37
2022-09-15T05:42:40.303Z,12.35
2022-09-15T05:45:07.473Z,12.32
2022-09-15T05:47:33.785Z,12.34
2022-09-15T05:50:00.116Z,12.31
2022-09-15T05:52:26.446Z,12.35
2022-09-15T05:54:56.952Z,12.29
2022-09-15T05:57:25.233Z,12.41
2022-09-15T05:59:51.548Z,12.43
2022-09-15T06:02:18.090Z,12.55
2022-09-15T06:04:44.452Z,12.64
2022-09-15T06:07:10.830Z,12.66
2022-09-15T06:09:37.898Z,12.66
2022-09-15T06:12:04.285Z,12.62
2022-09-15T06:14:30.603Z,12.52
2022-09-15T06:16:56.909Z,12.42
2022-09-15T06:19:23.278Z,12.42
2022-09-15T06:21:49.650Z,12.44
2022-09-15T06:24:15.996Z,12.44
2022-09-15T06:26:42.382Z,12.41
2022-09-15T06:29:11.492Z,12.44
2022-09-15T06:31:38.473Z,12.37
2022-09-15T06:34:05.263Z,12.39
2022-09-15T06:36:32.062Z,12.38
2022-09-15T06:38:58.973Z,12.49
2022-09-15T06:41:25.468Z,12.55
2022-09-15T06:43:52.940Z,12.68
2022-09-15T06:46:22.432Z,12.64
2022-09-15T06:48:51.292Z,12.59
2022-09-15T06:51:20.395Z,12.58
2022-09-15T06:53:47.078Z,12.56
2022-09-15T06:56:18.801Z,12.56
2022-09-15T06:58:46.239Z,12.57
2022-09-15T07:01:25.180Z,12.78
2022-09-15T07:03:52.025Z,12.99
2022-09-15T07:06:19.095Z,13.13
2022-09-15T07:08:46.559Z,13.15
2022-09-15T07:11:13.734Z,13.13
2022-09-15T07:13:40.452Z,13.04
2022-09-15T07:16:08.908Z,13.05
2022-09-15T07:18:39.694Z,13.13
2022-09-15T07:21:12.018Z,13.29
2022-09-15T07:23:38.321Z,13.29
2022-09-15T07:26:12.731Z,13.44
2022-09-15T07:28:40.522Z,13.42
2022-09-15T07:31:08.633Z,13.56
2022-09-15T07:33:35.731Z,13.60
2022-09-15T07:36:03.643Z,13.68
2022-09-15T07:38:30.304Z,13.66
2022-09-15T07:41:07.073Z,13.44
2022-09-15T07:43:33.888Z,13.42
2022-09-15T07:46:01.341Z,13.30
2022-09-15T07:48:28.168Z,13.49
2022-09-15T07:50:54.592Z,13.61
2022-09-15T07:53:21.236Z,13.91
2022-09-15T07:55:54.736Z,14.09
2022-09-15T07:58:21.667Z,14.14
2022-09-15T08:00:48.934Z,14.23
2022-09-15T08:03:15.888Z,14.37
2022-09-15T08:05:45.590Z,14.51
2022-09-15T08:08:12.175Z,14.57
2022-09-15T08:10:40.929Z,14.64
2022-09-15T08:13:07.203Z,14.82
2022-09-15T08:15:36.305Z,14.71
2022-09-15T08:18:02.640Z,14.70
2022-09-15T08:20:29.005Z,14.45
2022-09-15T08:22:55.319Z,14.47
2022-09-15T08:25:21.634Z,14.55
2022-09-15T08:27:47.904Z,14.61
2022-09-15T08:30:14.225Z,14.51
2022-09-15T08:32:40.609Z,14.49
2022-09-15T08:35:08.522Z,14.63
2022-09-15T08:37:35.089Z,14.59
2022-09-15T08:40:01.772Z,14.45
2022-09-15T08:42:30.386Z,14.42
2022-09-15T08:45:08.105Z,14.71
2022-09-15T08:47:39.811Z,14.72
2022-09-15T08:50:22.969Z,14.71
2022-09-15T08:52:55.492Z,14.77
2022-09-15T08:55:37.409Z,14.81
2022-09-15T08:58:05.764Z,14.86
2022-09-15T09:00:33.327Z,15.07
2022-09-15T09:03:21.397Z,15.15
2022-09-15T09:06:02.583Z,15.26
2022-09-15T09:08:53.300Z,15.28
2022-09-15T09:11:57.443Z,15.08
2022-09-15T09:14:44.786Z,15.22
2022-09-15T09:17:43.510Z,15.58
2022-09-15T09:20:34.301Z,15.83
2022-09-15T09:23:03.915Z,15.77
2022-09-15T09:25:31.318Z,15.91
2022-09-15T09:27:58.323Z,15.79
2022-09-15T09:30:27.559Z,15.88
2022-09-15T09:33:18.225Z,15.85
2022-09-15T09:35:51.629Z,15.89
2022-09-15T09:38:22.199Z,15.69
2022-09-15T09:40:49.621Z,15.48
2022-09-15T09:43:16.035Z,15.48
2022-09-15T09:45:42.510Z,15.31
2022-09-15T09:48:20.342Z,15.17
2022-09-15T09:50:47.784Z,14.92
2022-09-15T09:53:33.517Z,14.59
2022-09-15T09:56:12.385Z,14.72
2022-09-15T09:58:38.895Z,14.81
2022-09-15T10:01:19.847Z,14.58
2022-09-15T10:03:46.731Z,14.49
2022-09-15T10:06:20.495Z,14.44
2022-09-15T10:08:59.020Z,14.75
2022-09-15T10:11:52.668Z,14.86
2022-09-15T10:14:23.668Z,14.83
2022-09-15T10:17:01.735Z,15.11
2022-09-15T10:19:31.343Z,15.53
2022-09-15T10:21:59.064Z,15.64
2022-09-15T10:24:34.727Z,15.60
2022-09-15T10:27:17.017Z,15.75
2022-09-15T10:29:43.452Z,15.81
2022-09-15T10:32:25.382Z,16.03
2022-09-15T10:35:00.676Z,15.76
2022-09-15T10:37:50.809Z,15.61
2022-09-15T10:40:26.027Z,15.49
2022-09-15T10:42:57.622Z,15.10
2022-09-15T10:45:39.475Z,14.63
2022-09-15T10:48:33.464Z,14.68
2022-09-15T10:51:18.876Z,14.36
2022-09-15T10:54:24.338Z,14.26
2022-09-15T10:56:58.923Z,14.20
2022-09-15T11:00:08.927Z,14.07
2022-09-15T11:03:11.832Z,14.22
2022-09-15T11:05:38.172Z,14.30
2022-09-15T11:08:45.927Z,14.54
2022-09-15T11:11:45.005Z,14.95
2022-09-15T11:14:23.660Z,15.35
2022-09-15T11:17:05.512Z,15.60
2022-09-15T11:19:57.595Z,15.87
2022-09-15T11:22:48.741Z,16.05
2022-09-15T11:25:22.795Z,16.10
2022-09-15T11:27:58.359Z,16.07
2022-09-15T11:30:29.511Z,15.85
2022-09-15T11:33:02.024Z,15.90
2022-09-15T11:35:40.504Z,15.82
2022-09-15T11:38:28.230Z,15.76
2022-09-15T11:41:04.932Z,15.37
2022-09-15T11:43:37.376Z,15.16
2022-09-15T11:46:12.922Z,14.95
2022-09-15T11:48:55.672Z,15.06
2022-09-15T11:51:25.359Z,15.20
2022-09-15T11:54:09.486Z,15.16
2022-09-15T11:56:42.543Z,15.57
2022-09-15T11:59:31.438Z,15.61
2022-09-15T12:02:11.594Z,15.82
2022-09-15T12:04:45.942Z,16.18
2022-09-15T12:07:18.747Z,16.30
2022-09-15T12:09:45.445Z,16.21
2022-09-15T12:12:15.730Z,16.60
2022-09-15T12:14:47.569Z,16.77
2022-09-15T12:17:37.372Z,16.76
2022-09-15T12:20:22.954Z,17.04
2022-09-15T12:23:01.680Z,17.14
2022-09-15T12:25:35.768Z,16.66
2022-09-15T12:28:23.854Z,16.60
2022-09-15T12:31:28.782Z,16.70
2022-09-15T12:34:16.969Z,17.10
2022-09-15T12:36:52.794Z,17.19
2022-09-15T12:39:24.144Z,17.05
2022-09-15T12:42:00.930Z,17.19
2022-09-15T12:44:37.920Z,17.41
2022-09-15T12:47:15.287Z,17.40
2022-09-15T12:49:44.396Z,17.49
2022-09-15T12:52:11.964Z,17.35
2022-09-15T12:54:42.559Z,17.03
2022-09-15T12:57:30.438Z,15.94
2022-09-15T13:00:16.306Z,15.48
2022-09-15T13:02:46.530Z,15.15
2022-09-15T13:05:14.195Z,15.18
2022-09-15T13:07:57.843Z,14.92
2022-09-15T13:10:29.506Z,14.91
2022-09-15T13:13:22.540Z,14.76
2022-09-15T13:15:51.819Z,14.81
2022-09-15T13:18:19.754Z,14.81
2022-09-15T13:20:53.760Z,14.89
2022-09-15T13:23:24.965Z,14.94
2022-09-15T13:25:56.116Z,15.00
2022-09-15T13:28:23.958Z,15.03
2022-09-15T13:31:05.182Z,14.69
2022-09-15T13:40:14.251Z,13.82
2022-09-15T13:43:11.647Z,13.61
2022-09-15T13:45:49.919Z,13.58
2022-09-15T13:48:40.107Z,13.73
2022-09-15T13:51:22.608Z,13.79
2022-09-15T13:54:04.163Z,13.75
2022-09-15T13:56:38.307Z,13.71
2022-09-15T13:59:13.498Z,13.84
2022-09-15T14:01:41.931Z,14.01
2022-09-15T14:04:24.256Z,14.03
2022-09-15T14:06:57.170Z,14.14
2022-09-15T14:09:33.112Z,14.40
2022-09-15T14:12:04.921Z,14.55
2022-09-15T14:14:31.196Z,14.67
2022-09-15T14:16:57.642Z,14.76
2022-09-15T14:19:34.021Z,14.76
2022-09-15T14:22:33.012Z,14.85
2022-09-15T14:25:04.973Z,14.93
2022-09-15T14:27:36.388Z,14.95
2022-09-15T14:30:07.214Z,15.05
2022-09-15T14:32:45.795Z,15.31
2022-09-15T14:35:19.774Z,15.36
2022-09-15T14:37:54.986Z,15.26
2022-09-15T14:40:41.726Z,15.53
2022-09-15T14:43:30.266Z,15.17
2022-09-15T14:46:09.760Z,14.88
2022-09-15T14:48:36.106Z,14.66
2022-09-15T14:51:08.652Z,14.44
2022-09-15T14:53:38.416Z,13.67
2022-09-15T14:56:15.555Z,13.39
2022-09-15T14:58:55.975Z,13.46
2022-09-15T15:01:31.337Z,13.38
2022-09-15T15:04:25.469Z,13.50
2022-09-15T15:07:15.044Z,13.62
2022-09-15T15:09:46.934Z,13.40
2022-09-15T15:12:22.240Z,13.49
2022-09-15T15:14:48.925Z,13.76
2022-09-15T15:17:54.611Z,13.85
2022-09-15T15:20:27.183Z,13.78
2022-09-15T15:23:23.931Z,13.89
2022-09-15T15:25:51.142Z,13.83
2022-09-15T15:28:35.636Z,13.99
2022-09-15T15:31:20.776Z,13.98
2022-09-15T15:34:05.038Z,13.85
2022-09-15T15:36:34.296Z,13.83
2022-09-15T15:39:04.318Z,14.02
2022-09-15T15:41:35.016Z,13.97
2022-09-15T15:44:29.343Z,13.87
2022-09-15T15:46:57.429Z,13.79
2022-09-15T15:49:33.062Z,13.73
2022-09-15T15:52:00.512Z,13.65
2022-09-15T15:54:27.957Z,13.70
2022-09-15T15:56:54.551Z,13.74
2022-09-15T15:59:21.187Z,13.59
2022-09-15T16:01:51.207Z,13.51
2022-09-15T16:04:17.575Z,13.46
2022-09-15T16:06:44.797Z,13.42
2022-09-15T16:09:14.588Z,13.43
2022-09-15T16:11:42.709Z,13.46
2022-09-15T16:14:13.268Z,13.51
2022-09-15T16:16:39.588Z,13.53
2022-09-15T16:19:06.088Z,13.59
2022-09-15T16:21:38.562Z,13.53
2022-09-15T16:24:06.126Z,13.51
2022-09-15T16:26:34.421Z,13.52
2022-09-15T16:29:01.300Z,13.55
2022-09-15T16:31:27.737Z,13.35
2022-09-15T16:33:54.091Z,12.97
2022-09-15T16:36:20.439Z,12.97
2022-09-15T16:38:46.738Z,12.94
2022-09-15T16:41:25.363Z,13.00
2022-09-15T16:44:02.446Z,13.02
2022-09-15T16:46:29.660Z,12.76
2022-09-15T16:48:56.262Z,12.58
2022-09-15T16:51:29.755Z,12.56
2022-09-15T16:53:57.971Z,12.46
2022-09-15T16:56:24.262Z,12.37
2022-09-15T16:58:55.944Z,12.23
2022-09-15T17:01:25.907Z,12.26
2022-09-15T17:03:52.195Z,12.19
2022-09-15T17:06:18.879Z,12.27
2022-09-15T17:08:45.681Z,12.28
2022-09-15T17:11:16.663Z,12.29
2022-09-15T17:13:44.466Z,12.21
2022-09-15T17:16:12.390Z,12.21
2022-09-15T17:18:38.739Z,12.17
2022-09-15T17:21:05.142Z,12.15
2022-09-15T17:23:35.307Z,12.12
2022-09-15T17:26:04.633Z,12.02
2022-09-15T17:28:33.724Z,12.08
2022-09-15T17:31:02.340Z,12.09
2022-09-15T17:33:31.011Z,12.03
2022-09-15T17:35:57.881Z,12.00
2022-09-15T17:38:24.958Z,11.86
2022-09-15T17:40:52.513Z,11.92
2022-09-15T17:43:21.709Z,11.87
2022-09-15T17:45:49.365Z,11.78
2022-09-15T17:48:16.542Z,11.72
2022-09-15T17:50:44.962Z,11.70
2022-09-15T17:53:13.884Z,11.72
2022-09-15T17:55:41.156Z,11.76
2022-09-15T17:58:07.909Z,11.72
2022-09-15T18:00:37.291Z,11.66
2022-09-15T18:03:10.489Z,11.56
2022-09-15T18:05:37.242Z,11.53
2022-09-15T18:08:05.766Z,11.55
2022-09-15T18:10:34.212Z,11.64
2022-09-15T18:13:01.601Z,11.54
2022-09-15T18:15:30.960Z,11.57
2022-09-15T18:17:59.984Z,11.51
2022-09-15T18:20:28.805Z,11.43
2022-09-15T18:22:55.226Z,11.43
2022-09-15T18:25:33.422Z,11.39
2022-09-15T18:28:01.281Z,11.36
2022-09-15T18:30:34.496Z,11.32
2022-09-15T18:33:00.795Z,11.27
2022-09-15T18:35:27.177Z,11.29
2022-09-15T18:37:58.511Z,11.27
2022-09-15T18:40:26.204Z,11.26
2022-09-15T18:42:52.634Z,11.22
2022-09-15T18:45:19.680Z,11.24
2022-09-15T18:47:50.772Z,11.27
2022-09-15T18:50:20.170Z,11.30
2022-09-15T18:52:46.713Z,11.36
2022-09-15T18:55:15.812Z,11.47
2022-09-15T18:57:43.092Z,11.40
2022-09-15T19:00:19.125Z,11.34
2022-09-15T19:02:46.078Z,11.36
2022-09-15T19:05:15.479Z,11.33
2022-09-15T19:07:43.159Z,11.31
2022-09-15T19:10:13.373Z,11.20
2022-09-15T19:12:39.951Z,11.20
2022-09-15T19:15:11.613Z,11.16
2022-09-15T19:17:39.218Z,11.21
2022-09-15T19:20:07.362Z,11.14
2022-09-15T19:22:34.840Z,11.14
2022-09-15T19:25:01.243Z,11.14
2022-09-15T19:27:27.876Z,11.14
2022-09-15T19:29:54.164Z,11.13
2022-09-15T19:32:21.996Z,11.14
2022-09-15T19:34:49.171Z,11.12
2022-09-15T19:37:19.565Z,11.15
2022-09-15T19:39:47.430Z,11.09
2022-09-15T19:44:41.932Z,11.14
2022-09-15T19:47:08.964Z,11.16
2022-09-15T19:49:35.534Z,11.14
2022-09-15T19:52:01.820Z,11.10
2022-09-15T19:54:29.803Z,11.09
2022-09-15T19:56:56.416Z,11.11
2022-09-15T19:59:26.275Z,11.10
2022-09-15T20:01:55.115Z,11.07
2022-09-15T20:04:21.466Z,11.01
2022-09-15T20:06:47.753Z,10.98
2022-09-15T20:09:15.112Z,10.93
2022-09-15T20:11:41.599Z,10.92
2022-09-15T20:14:07.990Z,10.90
2022-09-15T20:16:34.930Z,10.87
2022-09-15T20:19:03.991Z,10.87
2022-09-15T20:21:49.299Z,10.87
2022-09-15T20:24:18.146Z,10.89
2022-09-15T20:26:44.613Z,10.92
2022-09-15T20:29:11.089Z,10.92
2022-09-15T20:31:37.569Z,10.91
2022-09-15T20:34:04.054Z,10.93
2022-09-15T20:36:33.427Z,10.85
2022-09-15T20:39:00.994Z,10.83
2022-09-15T20:41:28.812Z,10.85
2022-09-15T20:43:55.496Z,10.80
2022-09-15T20:46:23.116Z,10.72
2022-09-15T20:48:51.255Z,10.68
2022-09-15T20:51:22.693Z,10.71
2022-09-15T20:53:51.259Z,10.71
2022-09-15T20:56:21.094Z,10.67
2022-09-15T20:58:47.794Z,10.64
2022-09-15T21:01:17.182Z,10.66
2022-09-15T21:03:45.252Z,10.61
2022-09-15T21:06:20.771Z,10.54
2022-09-15T21:08:48.496Z,10.56
2022-09-15T21:11:16.043Z,10.57
2022-09-15T21:13:43.592Z,10.56
2022-09-15T21:16:14.488Z,10.51
2022-09-15T21:18:42.247Z,10.52
2022-09-15T21:21:20.739Z,10.48
2022-09-15T21:23:52.687Z,10.42
2022-09-15T21:26:21.854Z,10.43
2022-09-15T21:28:48.648Z,10.46
2022-09-15T21:31:18.714Z,10.44
2022-09-15T21:33:46.903Z,10.44
2022-09-15T21:36:21.234Z,10.43
2022-09-15T21:38:48.356Z,10.38
2022-09-15T21:41:17.215Z,10.35
2022-09-15T21:43:46.392Z,10.31
2022-09-15T21:46:16.126Z,10.24
2022-09-15T21:48:44.201Z,10.24
2022-09-15T21:51:13.023Z,10.22
2022-09-15T21:53:39.662Z,10.25
2022-09-15T21:56:11.774Z,10.22
2022-09-15T21:58:42.940Z,10.17
2022-09-15T22:01:14.020Z,10.25
2022-09-15T22:03:42.248Z,10.24
2022-09-15T22:06:12.676Z,10.24
2022-09-15T22:08:39.900Z,10.26
2022-09-15T22:11:07.346Z,10.26
2022-09-15T22:13:35.697Z,10.28
2022-09-15T22:16:07.751Z,10.23
2022-09-15T22:18:38.932Z,10.21
2022-09-15T22:21:09.568Z,10.17
2022-09-15T22:23:36.215Z,10.22
2022-09-15T22:26:04.325Z,10.20
2022-09-15T22:28:31.223Z,10.21
2022-09-15T22:31:02.081Z,10.21
2022-09-15T22:33:28.980Z,10.24
2022-09-15T22:35:56.789Z,10.25
2022-09-15T22:38:24.958Z,10.23
2022-09-15T22:40:51.501Z,10.23
2022-09-15T22:43:17.862Z,10.22
2022-09-15T22:45:44.329Z,10.23
2022-09-15T22:48:10.743Z,10.23
2022-09-15T22:50:37.118Z,10.25
2022-09-15T22:53:03.827Z,10.26
2022-09-15T22:55:31.395Z,10.30
2022-09-15T22:57:58.510Z,10.26
2022-09-15T23:00:24.939Z,10.24
2022-09-15T23:02:51.796Z,10.30
2022-09-15T23:05:18.211Z,10.26
2022-09-15T23:07:44.480Z,10.22
2022-09-15T23:10:10.778Z,10.24
2022-09-15T23:12:37.095Z,10.23
2022-09-15T23:15:04.583Z,10.22
2022-09-15T23:17:31.317Z,10.22
2022-09-15T23:19:57.613Z,10.15
2022-09-15T23:22:23.879Z,10.13
2022-09-15T23:24:50.187Z,10.10
2022-09-15T23:27:16.486Z,10.07
2022-09-15T23:29:42.786Z,10.11
2022-09-15T23:32:09.656Z,10.04
2022-09-15T23:34:36.047Z,9.99
2022-09-15T23:37:02.780Z,9.95
2022-09-15T23:39:29.197Z,9.93
2022-09-15T23:41:55.475Z,9.93
2022-09-15T23:44:21.936Z,9.98
2022-09-15T23:46:48.388Z,9.96
2022-09-15T23:49:18.595Z,9.99
2022-09-15T23:51:45.313Z,10.03
2022-09-15T23:54:11.632Z,10.01
2022-09-15T23:56:38.228Z,10.03
2022-09-15T23:59:04.523Z,9.99
